Time;durP1;ratioP1;P1;durP2;ratioP2;P2;SDS_P1;SDS_P2;PMS_P1;PMS_P2;Temp;Humidity;BMP_temperature;BMP_pressure;BME280_temperature;BME280_humidity;BME280_pressure;Samples;Min_cycle;Max_cycle;Signal;HPM_P1;HPM_P2
2021/06/30 00:00:17;;;;;;;202.15;18.45;;;;;;;18.42;62.98;99032.44;254474;1097;114928;-72
2021/06/30 00:05:46;;;;;;;5.43;4.93;;;;;;;18.42;63.17;99022.45;255300;1104;116859;-73
2021/06/30 00:10:55;;;;;;;11.35;5.05;;;;;;;18.48;63.40;99018.54;254416;1103;117243;-74
2021/06/30 00:16:04;;;;;;;9.55;5.78;;;;;;;18.53;63.46;98998.73;254854;1104;117174;-73
2021/06/30 00:21:14;;;;;;;8.47;4.67;;;;;;;18.56;63.46;98983.84;254442;1104;115626;-72
2021/06/30 00:26:23;;;;;;;5.15;4.73;;;;;;;18.57;63.56;98983.53;255254;1102;115631;-72
2021/06/30 00:31:33;;;;;;;5.18;4.78;;;;;;;18.57;63.61;98971.94;254481;1104;116960;-71
2021/06/30 00:36:44;;;;;;;5.20;4.80;;;;;;;18.50;63.64;98981.25;254434;1104;115954;-71
2021/06/30 00:41:57;;;;;;;6.20;5.70;;;;;;;18.47;63.48;98979.16;254519;1104;115881;-73
2021/06/30 00:47:06;;;;;;;6.90;6.38;;;;;;;18.52;63.86;98980.95;254514;1103;115148;-73
2021/06/30 00:52:15;;;;;;;5.35;4.85;;;;;;;18.54;63.53;98977.95;254492;1103;115466;-73
2021/06/30 00:57:24;;;;;;;8.50;5.20;;;;;;;18.52;63.74;98970.16;255114;1104;115542;-73
2021/06/30 01:02:33;;;;;;;6.13;5.63;;;;;;;18.61;63.82;98972.95;255408;1102;114769;-74
2021/06/30 01:07:41;;;;;;;5.40;5.00;;;;;;;18.75;64.26;98960.98;254456;1104;115336;-74
2021/06/30 01:12:51;;;;;;;9.30;6.70;;;;;;;18.97;64.20;98964.77;254781;1104;117083;-74
2021/06/30 01:17:59;;;;;;;7.83;7.10;;;;;;;19.17;63.90;98970.47;254446;1104;116686;-73
2021/06/30 01:23:09;;;;;;;6.63;6.13;;;;;;;19.38;63.89;98988.84;256280;1103;116480;-75
2021/06/30 01:28:19;;;;;;;13.53;6.53;;;;;;;19.58;63.20;99020.77;255906;1104;115821;-74
2021/06/30 01:33:31;;;;;;;9.40;6.30;;;;;;;19.75;63.33;99047.09;257533;1104;116325;-74
2021/06/30 01:38:40;;;;;;;14.25;6.50;;;;;;;19.83;63.16;99087.70;254994;1104;115601;-74
2021/06/30 01:43:49;;;;;;;6.83;5.93;;;;;;;19.84;63.07;99105.53;254432;1104;115496;-75
2021/06/30 01:48:57;;;;;;;8.78;8.10;;;;;;;19.83;63.01;99120.16;256818;1103;114804;-75
2021/06/30 01:54:15;;;;;;;6.45;5.78;;;;;;;19.80;63.47;99142.42;256419;1104;114870;-77
2021/06/30 01:59:24;;;;;;;7.73;7.13;;;;;;;19.61;64.65;99149.91;254581;1104;115759;-75
2021/06/30 02:04:33;;;;;;;21.03;9.35;;;;;;;19.37;65.86;99171.02;254615;1104;115974;-74
2021/06/30 02:09:41;;;;;;;11.40;10.25;;;;;;;19.24;66.50;99166.48;254235;1104;116895;-74
2021/06/30 02:14:49;;;;;;;13.40;10.13;;;;;;;19.18;67.59;99172.00;254363;1104;115515;-73
2021/06/30 02:19:57;;;;;;;12.00;10.45;;;;;;;19.10;68.15;99150.30;254844;1104;115694;-73
2021/06/30 02:25:08;;;;;;;10.60;9.70;;;;;;;19.13;68.47;99109.17;254470;1102;117028;-73
2021/06/30 02:30:21;;;;;;;12.05;10.85;;;;;;;19.11;69.08;99104.07;254451;1104;116763;-73
2021/06/30 02:35:30;;;;;;;12.70;11.35;;;;;;;19.14;69.39;99098.06;254458;1104;115862;-73
2021/06/30 02:40:38;;;;;;;14.63;10.40;;;;;;;19.22;69.78;99087.63;254365;1104;115117;-73
2021/06/30 02:45:47;;;;;;;12.78;11.58;;;;;;;19.23;69.94;99076.52;254448;1104;116095;-73
2021/06/30 02:50:56;;;;;;;15.58;11.58;;;;;;;19.25;70.02;99031.08;254282;1104;116154;-73
2021/06/30 02:56:05;;;;;;;11.60;10.43;;;;;;;19.23;70.41;99006.27;254271;1104;115969;-75
2021/06/30 03:01:17;;;;;;;12.20;11.10;;;;;;;19.24;70.30;98977.34;254384;1103;115761;-77
2021/06/30 03:06:26;;;;;;;13.57;12.30;;;;;;;19.20;70.88;98979.06;254743;1104;116250;-77
2021/06/30 03:11:38;;;;;;;12.80;11.68;;;;;;;19.16;70.59;98958.06;255636;1104;116723;-72
2021/06/30 03:16:49;;;;;;;11.63;10.53;;;;;;;19.20;71.17;98923.13;254815;1104;116869;-74
2021/06/30 03:21:58;;;;;;;11.05;10.13;;;;;;;19.11;71.29;98887.95;254906;1104;116333;-72
2021/06/30 03:27:07;;;;;;;13.78;12.18;;;;;;;19.12;71.59;98907.66;254775;1104;117529;-73
2021/06/30 03:32:15;;;;;;;12.88;11.25;;;;;;;19.14;71.62;98932.47;254495;1097;117192;-72
2021/06/30 03:37:24;;;;;;;11.45;10.35;;;;;;;19.18;71.68;98947.75;254324;1104;117160;-73
2021/06/30 03:42:35;;;;;;;11.40;10.20;;;;;;;19.25;71.87;98947.31;255732;1097;116784;-74
2021/06/30 03:47:43;;;;;;;13.90;10.57;;;;;;;19.27;72.03;98938.87;257390;1104;115422;-75
2021/06/30 03:52:52;;;;;;;12.93;11.73;;;;;;;19.27;71.67;98950.47;256288;1103;116676;-74
2021/06/30 03:58:01;;;;;;;13.18;10.15;;;;;;;19.27;71.68;98957.78;256207;1104;115409;-74
2021/06/30 04:03:10;;;;;;;14.40;11.70;;;;;;;19.22;72.02;98931.72;254603;1103;117518;-76
2021/06/30 04:08:19;;;;;;;11.90;10.80;;;;;;;19.24;72.32;98944.92;255717;1104;115130;-76
2021/06/30 04:13:25;;;;;;;12.48;11.30;;;;;;;19.29;72.22;98928.55;254633;1104;115500;-77
2021/06/30 04:18:34;;;;;;;13.65;12.40;;;;;;;19.31;72.64;98918.22;254869;1104;115624;-77
2021/06/30 04:23:40;;;;;;;12.05;10.40;;;;;;;19.40;72.68;98927.17;254465;1097;116062;-76
2021/06/30 04:28:48;;;;;;;9.80;8.93;;;;;;;19.44;72.61;98939.75;255438;1104;116009;-76
2021/06/30 04:33:56;;;;;;;11.33;9.60;;;;;;;19.48;72.45;98929.12;255120;1104;115331;-76
2021/06/30 04:39:04;;;;;;;10.78;9.23;;;;;;;19.58;72.77;98928.84;254446;1104;116116;-75
2021/06/30 04:44:13;;;;;;;9.40;8.57;;;;;;;19.71;72.45;98960.39;254353;1104;115466;-75
2021/06/30 04:49:22;;;;;;;9.85;8.98;;;;;;;19.82;72.58;98969.82;254296;1104;115091;-78
2021/06/30 04:54:30;;;;;;;7.93;7.23;;;;;;;19.88;72.31;98975.06;254315;1103;115577;-77
2021/06/30 04:59:40;;;;;;;10.15;9.28;;;;;;;19.86;72.38;98988.92;254776;1104;116146;-74
2021/06/30 05:04:48;;;;;;;10.35;9.33;;;;;;;20.04;72.00;98984.34;255277;1102;114979;-73
2021/06/30 05:09:56;;;;;;;10.13;9.33;;;;;;;20.26;71.50;98986.92;255052;1104;114995;-73
2021/06/30 05:15:05;;;;;;;9.95;8.55;;;;;;;21.39;70.41;98998.53;256715;1103;114658;-74
2021/06/30 05:20:14;;;;;;;8.48;7.58;;;;;;;22.42;68.52;98995.30;254700;1104;114803;-74
2021/06/30 05:25:23;;;;;;;7.60;7.03;;;;;;;24.44;66.52;99011.52;254334;1104;115303;-74
2021/06/30 05:30:31;;;;;;;10.55;8.90;;;;;;;23.97;65.63;99011.19;254296;1104;115030;-75
2021/06/30 05:35:38;;;;;;;8.33;7.63;;;;;;;25.65;63.37;99015.67;255794;1104;115665;-77
2021/06/30 05:40:46;;;;;;;10.48;8.73;;;;;;;26.80;62.03;99019.84;254473;1103;115568;-74
2021/06/30 05:45:55;;;;;;;7.58;6.98;;;;;;;26.87;60.25;99019.20;255553;1104;115401;-75
2021/06/30 05:51:05;;;;;;;11.00;9.98;;;;;;;26.55;60.16;99019.33;254421;1104;116004;-76
2021/06/30 05:56:16;;;;;;;9.88;9.00;;;;;;;27.66;59.09;99020.33;254995;1104;115604;-75
2021/06/30 06:01:26;;;;;;;8.20;7.53;;;;;;;29.21;56.39;99022.10;254984;1104;115247;-77
2021/06/30 06:06:35;;;;;;;7.97;7.37;;;;;;;30.99;53.48;99038.75;255357;1104;115061;-73
2021/06/30 06:11:43;;;;;;;6.88;6.30;;;;;;;32.13;51.26;99044.44;255064;1104;115131;-74
2021/06/30 06:16:52;;;;;;;5.77;5.27;;;;;;;32.53;48.93;99054.24;255133;1104;115312;-74
2021/06/30 06:22:04;;;;;;;5.55;5.05;;;;;;;33.94;47.34;99056.72;254309;1104;114910;-74
2021/06/30 06:27:13;;;;;;;4.23;3.93;;;;;;;35.57;45.17;99068.70;254365;1104;115595;-77
2021/06/30 06:32:23;;;;;;;4.03;3.73;;;;;;;36.63;42.34;99062.57;254958;1103;115270;-74
2021/06/30 06:37:32;;;;;;;3.18;2.98;;;;;;;37.49;40.16;99065.14;254295;1104;115022;-76
2021/06/30 06:42:41;;;;;;;2.45;2.35;;;;;;;37.94;39.00;99070.81;254325;1102;114954;-74
2021/06/30 06:47:50;;;;;;;4.68;1.70;;;;;;;38.18;37.13;99056.75;254545;1102;115270;-74
2021/06/30 06:52:59;;;;;;;2.80;2.20;;;;;;;38.04;35.57;99055.86;255046;1104;115508;-72
2021/06/30 06:58:08;;;;;;;1.60;1.43;;;;;;;38.28;35.75;99050.88;254376;1102;115433;-75
2021/06/30 07:03:19;;;;;;;10.20;1.70;;;;;;;36.75;35.54;99036.95;254622;1102;116148;-77
2021/06/30 07:08:27;;;;;;;1.48;1.30;;;;;;;34.93;36.17;99046.61;254289;1102;115028;-71
2021/06/30 07:13:36;;;;;;;27.88;3.98;;;;;;;33.13;37.91;99053.25;254272;1096;116819;-74
2021/06/30 07:18:44;;;;;;;1.17;1.17;;;;;;;32.07;39.31;99043.28;254289;1104;115375;-77
2021/06/30 07:23:53;;;;;;;1.13;1.03;;;;;;;31.91;41.22;99040.13;255588;1104;115335;-78
2021/06/30 07:29:01;;;;;;;2.40;1.60;;;;;;;31.35;40.68;99055.40;254553;1104;115676;-75
2021/06/30 07:34:09;;;;;;;1.88;1.05;;;;;;;30.61;42.26;99048.41;255573;1104;115314;-80
2021/06/30 07:39:18;;;;;;;4.03;0.90;;;;;;;30.75;42.28;99050.45;254568;1104;115353;-83
2021/06/30 07:44:26;;;;;;;0.60;0.60;;;;;;;30.53;42.13;99054.24;256152;1104;115683;-81
2021/06/30 07:49:29;;;;;;;2.10;0.80;;;;;;;30.67;42.96;99057.88;256334;1104;114948;-81
2021/06/30 07:54:33;;;;;;;0.60;0.60;;;;;;;30.65;42.92;99060.22;257108;1103;115895;-79
2021/06/30 07:59:36;;;;;;;0.98;0.98;;;;;;;30.63;42.99;99073.56;254286;1104;116654;-78
2021/06/30 08:04:39;;;;;;;0.60;0.60;;;;;;;30.76;42.57;99074.03;254931;1104;115540;-76
2021/06/30 08:09:42;;;;;;;0.80;0.80;;;;;;;30.72;42.65;99076.77;255337;1102;115145;-81
2021/06/30 08:14:45;;;;;;;1.40;0.98;;;;;;;30.65;42.68;99082.23;254491;1103;116533;-80
2021/06/30 08:19:47;;;;;;;1.23;0.93;;;;;;;30.70;43.53;99070.07;254294;1104;116452;-78
2021/06/30 08:24:50;;;;;;;0.93;0.80;;;;;;;30.75;43.02;99069.70;254431;1100;117064;-78
2021/06/30 08:29:54;;;;;;;2.18;0.98;;;;;;;30.57;42.57;99079.84;254331;1103;116207;-80
2021/06/30 08:34:57;;;;;;;0.87;0.87;;;;;;;30.36;42.50;99077.69;254952;1096;116935;-79
2021/06/30 08:39:59;;;;;;;5.20;1.20;;;;;;;30.02;42.82;99085.30;254347;1104;116347;-78
2021/06/30 08:45:03;;;;;;;0.80;0.80;;;;;;;29.88;42.78;99085.16;255015;1104;114669;-80
2021/06/30 08:50:08;;;;;;;1.23;1.23;;;;;;;30.00;43.36;99079.39;254318;1104;115850;-80
2021/06/30 08:55:15;;;;;;;1.30;1.20;;;;;;;30.18;43.51;99085.83;254871;1104;115580;-77
2021/06/30 09:00:19;;;;;;;1.63;1.23;;;;;;;30.20;42.80;99099.98;254265;1104;115011;-80
2021/06/30 09:10:36;;;;;;;8.60;1.65;;;;;;;30.24;44.56;99105.52;254228;1104;115246;-77
2021/06/30 09:15:39;;;;;;;1.68;1.58;;;;;;;30.08;43.70;99111.27;254358;1103;116186;-80
2021/06/30 09:20:42;;;;;;;1.80;1.43;;;;;;;29.62;43.13;99108.87;254410;1104;115532;-78
2021/06/30 09:25:45;;;;;;;2.83;1.63;;;;;;;29.24;43.37;99100.95;254131;1104;115536;-79
2021/06/30 09:30:57;;;;;;;3.85;1.53;;;;;;;29.15;44.00;99098.49;254219;1104;116084;-79
2021/06/30 09:36:04;;;;;;;2.18;2.00;;;;;;;29.63;44.83;99093.97;254232;1104;115471;-80
2021/06/30 09:41:07;;;;;;;2.45;2.30;;;;;;;29.93;44.01;99101.30;254230;1104;115447;-76
2021/06/30 09:46:22;;;;;;;1.83;1.73;;;;;;;29.77;43.73;99093.30;255762;1102;115206;-77
2021/06/30 09:51:28;;;;;;;1.46;1.46;;;;;;;29.40;43.46;99091.35;256965;1104;115420;-78
2021/06/30 09:56:32;;;;;;;2.23;2.13;;;;;;;28.95;43.27;99089.64;257458;1104;115610;-78
2021/06/30 10:01:39;;;;;;;3.60;2.17;;;;;;;29.30;44.24;99082.99;257307;1103;115267;-78
2021/06/30 10:06:42;;;;;;;2.53;2.10;;;;;;;29.05;44.02;99086.21;254898;1104;116182;-77
2021/06/30 10:12:11;;;;;;;2.10;2.00;;;;;;;28.75;43.87;99108.14;255002;1104;116654;-78
2021/06/30 10:17:15;;;;;;;2.57;2.47;;;;;;;28.59;44.00;99102.05;256741;1104;115350;-76
2021/06/30 10:22:19;;;;;;;3.55;2.78;;;;;;;28.52;44.43;99109.38;255086;1104;115555;-76
2021/06/30 10:27:22;;;;;;;2.85;2.65;;;;;;;28.56;44.36;99101.99;255680;1104;115727;-76
2021/06/30 10:32:29;;;;;;;3.10;2.78;;;;;;;28.64;44.10;99106.42;254660;1104;115695;-76
2021/06/30 10:37:37;;;;;;;6.35;2.75;;;;;;;28.59;44.34;99107.53;254571;1104;115854;-76
2021/06/30 10:42:43;;;;;;;2.50;2.40;;;;;;;28.38;45.08;99101.74;254448;1096;116182;-76
2021/06/30 10:47:56;;;;;;;2.90;2.48;;;;;;;28.93;44.92;99088.42;254506;1103;115402;-76
2021/06/30 10:53:16;;;;;;;2.00;1.90;;;;;;;28.97;44.94;99100.23;254417;1096;115912;-75
2021/06/30 10:58:25;;;;;;;2.20;2.10;;;;;;;29.31;45.41;99092.81;254588;1103;117509;-76
2021/06/30 11:03:49;;;;;;;1.78;1.75;;;;;;;28.84;44.54;99096.92;255206;1104;116953;-76
2021/06/30 11:08:58;;;;;;;5.78;2.00;;;;;;;28.59;44.60;99090.28;254526;1104;115377;-75
2021/06/30 11:14:13;;;;;;;1.63;1.53;;;;;;;28.27;44.64;99087.07;254239;1103;115341;-76
2021/06/30 11:19:17;;;;;;;1.30;1.30;;;;;;;28.25;45.42;99086.65;254544;1104;117235;-75
2021/06/30 11:25:09;;;;;;;2.75;1.43;;;;;;;28.34;45.69;99087.98;254380;1104;115885;-75
2021/06/30 11:30:08;;;;;;;1.10;1.10;;;;;;;28.95;45.09;99070.43;255030;1096;116084;-75
2021/06/30 11:35:15;;;;;;;1.05;1.05;;;;;;;29.14;44.58;99075.75;254461;1104;116145;-75
2021/06/30 11:40:23;;;;;;;1.17;1.17;;;;;;;29.37;44.30;99078.34;255778;1097;118398;-73
2021/06/30 11:45:34;;;;;;;1.33;1.33;;;;;;;28.97;43.92;99072.80;256321;1104;117844;-75
2021/06/30 11:50:53;;;;;;;1.20;1.20;;;;;;;29.26;44.64;99076.66;254418;1104;115946;-75
2021/06/30 11:55:57;;;;;;;1.37;1.37;;;;;;;29.51;44.66;99064.02;257358;1103;116587;-75
2021/06/30 12:01:00;;;;;;;1.27;1.27;;;;;;;29.55;44.33;99064.05;257326;1103;115985;-76
2021/06/30 12:06:02;;;;;;;1.40;1.33;;;;;;;29.12;43.16;99064.34;257320;1104;115069;-75
2021/06/30 12:11:05;;;;;;;1.45;1.45;;;;;;;29.07;43.59;99056.45;256325;1096;116081;-75
2021/06/30 12:16:09;;;;;;;1.63;1.53;;;;;;;28.95;43.68;99044.95;254487;1104;117138;-75
2021/06/30 12:21:13;;;;;;;1.10;1.10;;;;;;;29.10;43.88;99041.98;254319;1104;117181;-75
2021/06/30 12:26:17;;;;;;;2.68;1.60;;;;;;;28.92;43.74;99049.23;254452;1103;115501;-75
2021/06/30 12:31:20;;;;;;;1.97;1.87;;;;;;;28.89;43.60;99055.45;254455;1104;116429;-75
2021/06/30 12:36:25;;;;;;;1.28;1.28;;;;;;;29.18;43.79;99047.55;254929;1104;115870;-75
2021/06/30 12:41:28;;;;;;;1.13;1.13;;;;;;;29.19;43.20;99052.67;254521;1104;115630;-75
2021/06/30 12:46:32;;;;;;;1.20;1.20;;;;;;;29.40;43.06;99046.60;254470;1102;115866;-75
2021/06/30 12:51:35;;;;;;;0.90;0.90;;;;;;;29.06;43.54;99049.38;254481;1104;116739;-75
2021/06/30 12:56:46;;;;;;;1.35;1.30;;;;;;;29.19;43.20;99044.44;254367;1104;115663;-75
2021/06/30 13:01:49;;;;;;;1.23;1.23;;;;;;;29.04;43.56;99045.45;254371;1104;114836;-75
2021/06/30 13:06:53;;;;;;;2.10;1.30;;;;;;;28.69;43.24;99041.08;254547;1104;115731;-75
2021/06/30 13:12:01;;;;;;;1.20;1.10;;;;;;;28.64;43.64;99046.88;254386;1104;115791;-75
2021/06/30 13:17:06;;;;;;;1.23;1.23;;;;;;;28.91;43.66;99041.36;255455;1104;114763;-75
2021/06/30 13:22:33;;;;;;;1.48;1.38;;;;;;;28.40;43.70;99042.65;254455;1104;115061;-75
2021/06/30 13:28:01;;;;;;;1.43;1.43;;;;;;;28.39;44.18;99043.02;254667;1097;115659;-75
2021/06/30 13:38:39;;;;;;;1.30;1.30;;;;;;;28.04;44.49;99048.72;255451;1104;115120;-75
2021/06/30 13:43:46;;;;;;;1.33;1.33;;;;;;;28.37;45.11;99039.85;255052;1102;115362;-75
2021/06/30 13:48:52;;;;;;;3.45;1.73;;;;;;;28.38;44.16;99044.17;254129;1104;115612;-75
2021/06/30 13:53:55;;;;;;;8.45;1.58;;;;;;;28.59;44.76;99046.41;254488;1104;115241;-75
2021/06/30 13:58:59;;;;;;;1.53;1.43;;;;;;;28.23;44.25;99050.59;257230;1104;116986;-75
2021/06/30 14:04:02;;;;;;;1.43;1.43;;;;;;;27.90;44.51;99053.96;257448;1103;115108;-75
2021/06/30 14:09:05;;;;;;;1.63;1.53;;;;;;;28.10;44.65;99041.78;257339;1104;116431;-75
2021/06/30 14:14:07;;;;;;;1.73;1.63;;;;;;;28.38;45.14;99036.75;256870;1103;115158;-76
2021/06/30 14:19:10;;;;;;;1.60;1.50;;;;;;;28.22;44.74;99036.10;256327;1104;115601;-75
2021/06/30 14:24:16;;;;;;;2.20;2.10;;;;;;;28.28;44.56;99040.11;254514;1104;114504;-75
2021/06/30 14:29:20;;;;;;;1.98;1.88;;;;;;;27.82;44.69;99031.16;254377;1104;116643;-75
2021/06/30 14:34:23;;;;;;;2.08;1.98;;;;;;;27.69;45.19;99033.29;254411;1102;114918;-75
2021/06/30 14:39:27;;;;;;;2.35;1.75;;;;;;;28.05;44.93;99034.66;254303;1102;114972;-75
2021/06/30 14:44:30;;;;;;;2.33;1.90;;;;;;;28.07;44.84;99028.81;254845;1104;114665;-74
2021/06/30 14:49:33;;;;;;;2.20;2.10;;;;;;;27.91;44.40;99028.16;254355;1104;115324;-75
2021/06/30 14:54:38;;;;;;;2.10;2.00;;;;;;;27.82;44.77;99031.92;254350;1104;115498;-74
2021/06/30 14:59:42;;;;;;;5.40;2.40;;;;;;;27.52;44.72;99033.73;254427;1104;116898;-74
2021/06/30 15:04:44;;;;;;;1.87;1.77;;;;;;;27.38;45.13;99028.80;254401;1104;120372;-74
2021/06/30 15:09:48;;;;;;;2.17;2.00;;;;;;;27.49;45.17;99034.48;254267;1104;116856;-74
2021/06/30 15:14:51;;;;;;;2.05;1.95;;;;;;;27.63;45.30;99037.48;254857;1103;116360;-74
2021/06/30 15:19:54;;;;;;;1.98;1.88;;;;;;;27.70;44.99;99045.83;254260;1104;115960;-74
2021/06/30 15:24:57;;;;;;;2.68;2.48;;;;;;;27.53;44.70;99040.78;254381;1104;118547;-74
2021/06/30 15:30:01;;;;;;;2.60;2.48;;;;;;;27.67;44.91;99062.98;254485;1097;117172;-74
2021/06/30 15:35:06;;;;;;;2.08;1.98;;;;;;;27.89;44.70;99055.12;254313;1103;116894;-74
2021/06/30 15:40:12;;;;;;;1.85;1.85;;;;;;;28.01;44.18;99060.41;255583;1104;115145;-74
2021/06/30 15:45:16;;;;;;;2.38;2.28;;;;;;;28.09;44.01;99062.12;255474;1104;116374;-74
2021/06/30 15:50:20;;;;;;;2.05;1.95;;;;;;;28.07;43.78;99065.22;254350;1104;115999;-74
2021/06/30 15:55:23;;;;;;;2.55;2.45;;;;;;;27.97;44.04;99060.35;254506;1104;140323;-74
2021/06/30 16:00:27;;;;;;;7.05;2.88;;;;;;;27.82;43.60;99066.77;254721;1103;116590;-74
2021/06/30 16:05:31;;;;;;;5.15;2.05;;;;;;;27.57;43.90;99070.97;254257;1104;118955;-74
2021/06/30 16:10:34;;;;;;;2.58;2.45;;;;;;;27.38;44.10;99067.13;254352;1103;115854;-74
2021/06/30 16:15:44;;;;;;;2.20;2.10;;;;;;;27.27;43.99;99074.33;254735;1104;117100;-74
2021/06/30 16:21:09;;;;;;;3.03;2.83;;;;;;;27.03;44.75;99074.64;257469;1104;117132;-74
2021/06/30 16:26:13;;;;;;;2.73;2.53;;;;;;;26.93;44.83;99080.64;257502;1104;140658;-74
2021/06/30 16:31:18;;;;;;;2.95;2.75;;;;;;;26.72;45.17;99084.52;256194;1104;116538;-74
2021/06/30 16:36:24;;;;;;;2.73;2.53;;;;;;;26.71;45.71;99082.14;254745;1103;115668;-74
2021/06/30 16:41:27;;;;;;;4.83;2.53;;;;;;;26.82;46.08;99078.50;255015;1103;115555;-74
2021/06/30 16:46:29;;;;;;;5.08;2.95;;;;;;;26.87;45.88;99093.83;254527;1100;116445;-74
2021/06/30 16:51:33;;;;;;;3.40;3.20;;;;;;;26.91;45.72;99091.94;254210;1104;116221;-74
2021/06/30 16:56:36;;;;;;;2.83;2.73;;;;;;;26.84;45.77;99089.08;254497;1104;116507;-74
2021/06/30 17:01:39;;;;;;;2.90;2.75;;;;;;;26.72;45.91;99086.45;255354;1097;115701;-74
2021/06/30 17:06:42;;;;;;;7.27;2.67;;;;;;;26.52;46.23;99085.64;254259;1104;117315;-74
2021/06/30 17:11:45;;;;;;;4.88;2.75;;;;;;;26.31;46.13;99083.19;254477;1104;116516;-74
2021/06/30 17:16:48;;;;;;;2.60;2.48;;;;;;;26.04;46.79;99082.14;254544;1104;115899;-74
2021/06/30 17:21:50;;;;;;;3.10;2.68;;;;;;;25.82;47.31;99080.82;254481;1104;116633;-73
2021/06/30 17:26:53;;;;;;;2.80;2.60;;;;;;;25.63;47.54;99074.45;254478;1103;116290;-73
2021/06/30 17:31:55;;;;;;;3.75;3.55;;;;;;;25.46;48.30;99064.64;254444;1103;117693;-74
2021/06/30 17:36:58;;;;;;;3.75;3.45;;;;;;;25.30;48.33;99066.55;254532;1097;114863;-74
2021/06/30 17:42:03;;;;;;;2.90;2.70;;;;;;;25.10;48.78;99066.39;254436;1104;116500;-74
2021/06/30 17:47:06;;;;;;;3.75;3.10;;;;;;;24.94;49.51;99070.98;254332;1103;116603;-74
2021/06/30 17:52:11;;;;;;;3.33;3.13;;;;;;;24.73;49.29;99078.55;254440;1097;116749;-74
2021/06/30 17:57:19;;;;;;;4.50;3.15;;;;;;;24.50;49.73;99075.50;254402;1104;115800;-74
2021/06/30 18:02:22;;;;;;;2.33;2.23;;;;;;;24.33;50.32;99081.20;255704;1103;116970;-73
2021/06/30 18:07:26;;;;;;;3.20;3.00;;;;;;;24.14;50.32;99085.28;255410;1103;116424;-75
2021/06/30 18:12:29;;;;;;;3.23;3.10;;;;;;;23.99;50.58;99082.42;254514;1104;117247;-75
2021/06/30 18:17:33;;;;;;;3.20;3.00;;;;;;;23.86;51.20;99092.48;255880;1097;116835;-75
2021/06/30 18:22:36;;;;;;;4.33;3.80;;;;;;;23.70;50.93;99092.36;254433;1104;116905;-74
2021/06/30 18:27:39;;;;;;;5.20;4.43;;;;;;;23.57;51.50;99098.89;254327;1103;115520;-75
2021/06/30 18:32:43;;;;;;;3.83;3.58;;;;;;;23.44;51.92;99103.49;254457;1104;114978;-75
2021/06/30 18:37:48;;;;;;;4.93;4.50;;;;;;;23.31;52.37;99107.28;256064;1103;115185;-75
2021/06/30 18:42:51;;;;;;;3.95;3.65;;;;;;;23.18;52.26;99111.09;254683;1104;115086;-75
2021/06/30 18:47:54;;;;;;;5.78;3.80;;;;;;;23.04;52.65;99119.52;254514;1104;115221;-76
2021/06/30 18:52:57;;;;;;;3.65;3.35;;;;;;;22.84;53.12;99133.91;254492;1103;118818;-75
2021/06/30 18:58:02;;;;;;;4.10;3.80;;;;;;;22.69;53.42;99135.23;254229;1104;115499;-74
2021/06/30 19:03:05;;;;;;;3.28;2.98;;;;;;;22.54;53.72;99135.02;254343;1103;115369;-75
2021/06/30 19:08:10;;;;;;;4.68;4.38;;;;;;;22.38;54.11;99141.00;254285;1096;115752;-75
2021/06/30 19:13:13;;;;;;;7.38;6.78;;;;;;;22.24;54.36;99154.02;254374;1103;115317;-74
2021/06/30 19:18:17;;;;;;;4.80;4.45;;;;;;;22.07;54.78;99148.63;254336;1103;115260;-75
2021/06/30 19:23:19;;;;;;;3.95;3.65;;;;;;;21.91;55.04;99150.27;254659;1104;115675;-74
2021/06/30 19:28:22;;;;;;;3.98;3.68;;;;;;;21.72;55.53;99148.70;254405;1097;115053;-74
2021/06/30 19:33:25;;;;;;;4.20;3.85;;;;;;;21.54;55.91;99165.33;254323;1104;115383;-74
2021/06/30 19:38:28;;;;;;;4.93;4.50;;;;;;;21.34;56.67;99164.08;254552;1104;115303;-74
2021/06/30 19:43:31;;;;;;;5.48;4.18;;;;;;;21.08;57.29;99167.55;254327;1096;115721;-74
2021/06/30 19:48:35;;;;;;;7.60;4.03;;;;;;;20.80;57.41;99185.97;254382;1104;115164;-74
2021/06/30 19:53:38;;;;;;;4.58;4.13;;;;;;;20.55;58.45;99191.31;254795;1104;114998;-74
2021/06/30 19:58:42;;;;;;;5.45;4.63;;;;;;;20.28;59.16;99187.69;254409;1104;114823;-74
2021/06/30 20:03:46;;;;;;;4.48;4.18;;;;;;;20.09;59.78;99192.53;254198;1104;115254;-75
2021/06/30 20:08:49;;;;;;;6.07;4.13;;;;;;;19.97;60.18;99192.30;255169;1104;117242;-76
2021/06/30 20:13:54;;;;;;;4.48;4.18;;;;;;;19.82;60.53;99188.09;254147;1103;115341;-74
2021/06/30 20:19:01;;;;;;;13.25;4.55;;;;;;;19.68;60.77;99198.96;254730;1097;115644;-73
2021/06/30 20:24:05;;;;;;;4.75;4.35;;;;;;;19.52;61.32;99200.44;255018;1097;115602;-75
2021/06/30 20:29:09;;;;;;;8.10;3.93;;;;;;;19.34;61.50;99204.86;257374;1104;115454;-73
2021/06/30 20:34:18;;;;;;;4.30;4.00;;;;;;;19.21;61.87;99197.61;257226;1104;114889;-74
2021/06/30 20:39:27;;;;;;;8.98;4.18;;;;;;;19.07;62.35;99200.33;255954;1104;136815;-74
2021/06/30 20:44:30;;;;;;;5.70;5.20;;;;;;;18.96;62.34;99203.55;256975;1103;115326;-71
2021/06/30 20:49:35;;;;;;;5.75;5.25;;;;;;;18.91;62.66;99201.78;255100;1104;115287;-70
2021/06/30 20:54:39;;;;;;;4.83;4.43;;;;;;;18.87;63.18;99200.78;254976;1103;116863;-73
2021/06/30 20:59:43;;;;;;;4.90;4.60;;;;;;;18.70;63.20;99214.88;254245;1099;116807;-72
2021/06/30 21:04:45;;;;;;;5.65;5.15;;;;;;;18.52;63.67;99210.36;254332;1097;116592;-73
2021/06/30 21:09:48;;;;;;;6.50;6.03;;;;;;;18.48;64.16;99203.95;255036;1100;116979;-72
2021/06/30 21:14:52;;;;;;;6.88;5.35;;;;;;;18.45;64.12;99196.45;254478;1100;117159;-71
2021/06/30 21:19:55;;;;;;;7.55;5.68;;;;;;;18.39;64.20;99194.95;254878;1098;116062;-74
2021/06/30 21:24:58;;;;;;;5.53;4.75;;;;;;;18.18;64.59;99194.53;254230;1104;116615;-72
2021/06/30 21:30:01;;;;;;;5.98;5.58;;;;;;;18.09;65.01;99197.11;254404;1104;116609;-73
2021/06/30 21:35:06;;;;;;;6.88;6.18;;;;;;;17.95;65.15;99208.98;254230;1097;115479;-72
2021/06/30 21:40:10;;;;;;;6.03;5.53;;;;;;;17.99;65.43;99212.69;255122;1104;115712;-73
2021/06/30 21:45:14;;;;;;;7.10;6.50;;;;;;;17.99;65.62;99201.91;254733;1104;115388;-72
2021/06/30 21:50:18;;;;;;;5.53;5.13;;;;;;;17.80;65.57;99207.33;254910;1104;115206;-73
2021/06/30 21:55:20;;;;;;;7.23;5.58;;;;;;;17.57;65.73;99203.63;254408;1096;115364;-72
2021/06/30 22:00:28;;;;;;;6.88;6.33;;;;;;;17.47;66.27;99209.96;254784;1104;116651;-72
2021/06/30 22:05:31;;;;;;;7.58;6.53;;;;;;;17.34;66.30;99204.52;254631;1104;116400;-74
2021/06/30 22:10:35;;;;;;;15.98;6.85;;;;;;;17.30;66.74;99198.91;255161;1097;115513;-73
2021/06/30 22:15:38;;;;;;;8.78;6.80;;;;;;;17.22;67.05;99198.77;254518;1104;116674;-73
2021/06/30 22:20:46;;;;;;;7.23;6.65;;;;;;;17.11;66.87;99204.31;254486;1104;117076;-72
2021/06/30 22:25:51;;;;;;;6.93;6.20;;;;;;;17.05;67.36;99197.38;255039;1097;116776;-72
2021/06/30 22:30:54;;;;;;;7.60;6.90;;;;;;;17.01;67.42;99193.66;254371;1104;116183;-71
2021/06/30 22:35:56;;;;;;;7.48;6.88;;;;;;;16.93;67.52;99191.61;254381;1104;115775;-72
2021/06/30 22:41:00;;;;;;;6.63;6.03;;;;;;;16.76;67.83;99210.95;254275;1096;117798;-73
2021/06/30 22:46:03;;;;;;;11.45;7.73;;;;;;;16.79;68.44;99198.81;255065;1103;116872;-74
2021/06/30 22:51:06;;;;;;;8.55;7.85;;;;;;;16.86;68.67;99196.55;255443;1096;116220;-73
2021/06/30 22:56:09;;;;;;;8.55;7.70;;;;;;;16.79;68.00;99190.73;254411;1103;120156;-74
2021/06/30 23:01:12;;;;;;;11.45;7.23;;;;;;;16.67;68.39;99198.41;254991;1104;116096;-74
2021/06/30 23:06:16;;;;;;;6.50;6.00;;;;;;;16.56;68.20;99192.30;254343;1104;116431;-72
2021/06/30 23:11:18;;;;;;;8.70;7.53;;;;;;;16.51;68.59;99189.67;254363;1104;116385;-73
2021/06/30 23:16:22;;;;;;;8.20;7.40;;;;;;;16.43;68.91;99190.32;254277;1097;115853;-73
2021/06/30 23:21:25;;;;;;;9.30;7.30;;;;;;;16.34;68.55;99187.45;254481;1097;116121;-73
2021/06/30 23:26:28;;;;;;;8.58;7.40;;;;;;;16.30;69.05;99191.80;254128;1099;114945;-73
2021/06/30 23:31:31;;;;;;;7.93;7.23;;;;;;;16.21;69.01;99185.42;254403;1097;115438;-72